Time;durP1;ratioP1;P1;durP2;ratioP2;P2;SDS_P1;SDS_P2;PMS_P1;PMS_P2;Temp;Humidity;BMP_temperature;BMP_pressure;BME280_temperature;BME280_humidity;BME280_pressure;Samples;Min_cycle;Max_cycle;Signal;HPM_P1;HPM_P2
2023/08/29 00:06:42;;;;;;;5.38;3.20;;;;;;;17.48;67.74;100529.31;15720505;28;20037;-71
2023/08/29 00:14:18;;;;;;;5.85;2.90;;;;;;;17.34;68.18;100532.47;15732122;28;20060;-71
2023/08/29 00:21:52;;;;;;;4.32;3.17;;;;;;;17.36;68.71;100525.97;15721124;28;20494;-71
2023/08/29 00:29:27;;;;;;;6.15;3.40;;;;;;;17.28;69.34;100527.28;15737642;28;20090;-71
2023/08/29 00:37:00;;;;;;;5.38;3.13;;;;;;;17.29;69.30;100529.72;15717689;28;20048;-70
2023/08/29 00:44:34;;;;;;;5.15;3.50;;;;;;;17.21;69.26;100523.97;15708765;28;20040;-71
2023/08/29 00:52:07;;;;;;;7.45;3.25;;;;;;;17.14;69.59;100518.75;15713904;28;20426;-70
2023/08/29 00:59:42;;;;;;;4.65;3.55;;;;;;;17.27;69.25;100523.75;15727736;28;20076;-71
2023/08/29 01:07:17;;;;;;;4.03;3.63;;;;;;;17.21;68.93;100519.38;15735029;28;20055;-71
2023/08/29 01:14:59;;;;;;;5.00;3.60;;;;;;;17.19;69.30;100528.81;15728536;28;20116;-71
2023/08/29 01:22:45;;;;;;;5.10;3.75;;;;;;;17.15;69.00;100511.44;15725117;28;20418;-70
2023/08/29 01:30:22;;;;;;;7.28;3.72;;;;;;;17.12;69.52;100515.50;15726752;28;20066;-71
2023/08/29 01:37:55;;;;;;;5.45;4.05;;;;;;;17.25;69.01;100549.47;15738384;28;20075;-72
2023/08/29 01:45:31;;;;;;;6.28;3.67;;;;;;;17.21;69.18;100524.78;15705661;28;20450;-71
2023/08/29 01:53:05;;;;;;;6.43;3.90;;;;;;;17.27;68.89;100520.22;15720264;28;20036;-70
2023/08/29 02:00:41;;;;;;;4.80;3.83;;;;;;;17.19;69.19;100502.50;15680687;28;20052;-71
2023/08/29 02:08:14;;;;;;;8.57;3.97;;;;;;;17.04;68.97;100492.38;15724001;28;20127;-72
2023/08/29 02:15:49;;;;;;;5.38;3.70;;;;;;;17.04;68.77;100499.69;15728410;28;20477;-71
2023/08/29 02:23:28;;;;;;;6.00;3.80;;;;;;;16.98;68.87;100512.41;15705823;28;20477;-71
2023/08/29 02:31:06;;;;;;;;;;;;;;;17.12;68.38;100506.53;15726057;28;20060;-71
2023/08/29 02:38:39;;;;;;;6.10;3.50;;;;;;;17.15;67.84;100509.53;15717076;28;19924;-71
2023/08/29 02:46:13;;;;;;;;;;;;;;;17.15;67.94;100506.81;15707803;28;20053;-72
2023/08/29 02:53:46;;;;;;;5.72;3.45;;;;;;;17.13;67.95;100481.06;15727688;28;19934;-71
2023/08/29 03:01:21;;;;;;;;;;;;;;;16.68;68.85;100468.72;15704797;28;20056;-71
2023/08/29 03:08:54;;;;;;;5.63;3.03;;;;;;;17.03;67.61;100465.53;15695933;28;19924;-71
2023/08/29 03:16:29;;;;;;;5.05;2.95;;;;;;;16.88;67.73;100446.41;15704108;28;20522;-71
2023/08/29 03:24:05;;;;;;;5.32;2.95;;;;;;;16.86;67.38;100435.81;15733737;28;20051;-70
2023/08/29 03:31:41;;;;;;;4.13;2.78;;;;;;;16.61;67.74;100428.28;15715010;28;20094;-71
2023/08/29 03:39:15;;;;;;;4.93;2.40;;;;;;;16.52;67.89;100430.63;15707013;28;20040;-72
2023/08/29 03:46:49;;;;;;;5.45;2.30;;;;;;;16.74;66.48;100399.94;15719437;28;20043;-71
2023/08/29 03:54:24;;;;;;;5.43;2.10;;;;;;;16.42;67.44;100395.34;15719614;28;20189;-72
2023/08/29 04:01:58;;;;;;;2.58;1.90;;;;;;;16.55;66.58;100391.34;15706900;28;20491;-71
2023/08/29 04:09:33;;;;;;;3.92;1.70;;;;;;;16.26;67.01;100399.78;15713374;28;20048;-71
2023/08/29 04:17:07;;;;;;;4.20;1.88;;;;;;;16.43;66.43;100399.66;15744089;28;20063;-71
2023/08/29 04:24:41;;;;;;;3.40;1.50;;;;;;;16.39;66.55;100400.44;15727163;28;20143;-71
2023/08/29 04:32:15;;;;;;;2.95;1.63;;;;;;;16.45;66.17;100400.22;15702522;28;20063;-71
2023/08/29 04:39:48;;;;;;;3.35;1.65;;;;;;;16.77;65.56;100400.25;15727664;28;20044;-70
2023/08/29 04:47:26;;;;;;;2.85;1.90;;;;;;;16.76;65.51;100406.75;15714416;28;20572;-72
2023/08/29 04:55:04;;;;;;;3.60;1.80;;;;;;;16.55;66.06;100391.34;15716680;28;20049;-71
2023/08/29 05:02:39;;;;;;;5.53;1.95;;;;;;;16.89;65.41;100405.50;15717256;28;20060;-72
2023/08/29 05:10:13;;;;;;;5.63;1.90;;;;;;;16.68;66.16;100409.91;15688610;28;20131;-70
2023/08/29 05:17:50;;;;;;;3.03;2.08;;;;;;;17.09;65.07;100415.66;15712702;28;20086;-71
2023/08/29 05:25:24;;;;;;;4.85;2.15;;;;;;;17.13;66.01;100421.38;15718459;28;20524;-71
2023/08/29 05:33:03;;;;;;;3.45;2.20;;;;;;;17.03;66.49;100420.25;15722171;28;20127;-69
2023/08/29 05:40:36;;;;;;;4.40;1.95;;;;;;;16.71;67.91;100414.81;15690619;28;20041;-71
2023/08/29 05:48:10;;;;;;;5.18;2.00;;;;;;;16.87;67.84;100412.25;15683454;28;20045;-70
2023/08/29 05:55:43;;;;;;;3.65;2.70;;;;;;;16.54;69.50;100425.78;15664621;28;20053;-70
2023/08/29 06:03:18;;;;;;;5.35;2.45;;;;;;;16.98;68.21;100425.63;15681632;28;20526;-70
2023/08/29 06:10:52;;;;;;;7.03;2.50;;;;;;;16.78;69.58;100409.19;15665807;28;20044;-69
2023/08/29 06:18:26;;;;;;;;;;;;;;;17.13;69.03;100424.09;15743097;28;20040;-69
2023/08/29 06:26:00;;;;;;;4.10;2.70;;;;;;;17.21;69.22;100415.47;15743330;28;19973;-70
2023/08/29 06:33:35;;;;;;;6.65;3.10;;;;;;;17.21;69.06;100421.72;15742287;28;20482;-69
2023/08/29 06:41:08;;;;;;;5.10;2.80;;;;;;;17.17;69.30;100431.44;15741367;28;20044;-71
2023/08/29 06:48:48;;;;;;;4.97;2.88;;;;;;;17.26;69.60;100445.34;15733856;28;20402;-71
2023/08/29 06:56:21;;;;;;;5.07;2.75;;;;;;;17.42;69.51;100473.38;15722712;28;20154;-69
2023/08/29 07:03:55;;;;;;;6.07;2.90;;;;;;;17.15;70.49;100489.72;15745924;28;20044;-71
2023/08/29 07:11:28;;;;;;;6.28;3.17;;;;;;;17.11;70.02;100504.88;15728259;28;20049;-71
2023/08/29 07:19:04;;;;;;;4.70;3.70;;;;;;;17.52;68.70;100512.22;15683328;22;20513;-51
2023/08/29 07:26:37;;;;;;;6.75;3.42;;;;;;;17.36;69.64;100518.66;15612200;28;20052;-45
2023/08/29 07:34:15;;;;;;;7.85;3.95;;;;;;;17.49;70.11;100517.38;15611134;28;20409;-56
2023/08/29 07:41:48;;;;;;;5.93;3.38;;;;;;;16.98;71.84;100500.72;15592023;28;20046;-53
2023/08/29 07:49:23;;;;;;;7.40;3.90;;;;;;;17.49;70.51;100511.97;15610128;28;20381;-58
2023/08/29 07:56:56;;;;;;;5.97;3.88;;;;;;;17.44;70.93;100523.59;15610015;28;20041;-56
2023/08/29 08:04:32;;;;;;;6.70;4.07;;;;;;;17.70;70.53;100516.41;15609915;28;20034;-57
2023/08/29 08:12:07;;;;;;;6.25;4.32;;;;;;;17.89;69.84;100524.97;15576211;28;20465;-53
2023/08/29 08:19:42;;;;;;;7.47;4.60;;;;;;;17.48;71.17;100518.44;15575824;28;20037;-58
2023/08/29 08:27:15;;;;;;;6.38;4.45;;;;;;;17.59;70.31;100512.03;15608481;28;20069;-54
2023/08/29 08:34:49;;;;;;;7.57;5.35;;;;;;;17.77;70.93;100508.09;15609529;28;20049;-55
2023/08/29 08:42:22;;;;;;;105.07;65.72;;;;;;;17.84;71.24;100520.31;15589981;28;20128;-53
2023/08/29 08:49:58;;;;;;;9.40;6.88;;;;;;;17.78;71.04;100518.69;15589334;28;20057;-52
2023/08/29 08:57:32;;;;;;;8.55;7.15;;;;;;;17.70;71.82;100510.19;15618512;28;20069;-56
2023/08/29 09:05:07;;;;;;;9.88;7.53;;;;;;;18.08;71.57;100507.13;15617607;28;20046;-53
2023/08/29 09:12:47;;;;;;;10.05;6.78;;;;;;;17.92;70.83;100499.19;15599345;28;20065;-53
2023/08/29 09:20:24;;;;;;;7.43;6.53;;;;;;;18.42;70.59;100481.41;15600078;28;20049;-56
2023/08/29 09:27:56;;;;;;;7.25;5.00;;;;;;;18.44;70.04;100481.97;15598405;28;20045;-57
2023/08/29 09:35:31;;;;;;;;;;;;;;;17.97;69.00;100481.03;15598940;28;20088;-56
2023/08/29 09:43:05;;;;;;;7.47;4.20;;;;;;;18.05;68.56;100494.09;15598851;28;20241;-49
2023/08/29 09:50:42;;;;;;;4.45;3.15;;;;;;;18.33;67.22;100492.81;15615901;28;20100;-54
2023/08/29 09:58:17;;;;;;;5.95;3.00;;;;;;;18.32;66.75;100484.91;15596612;28;20136;-57
2023/08/29 10:05:57;;;;;;;4.40;3.22;;;;;;;18.14;66.95;100480.81;15612522;28;20048;-58
2023/08/29 10:13:31;;;;;;;5.60;3.17;;;;;;;18.16;67.61;100473.22;15614189;28;20034;-58
2023/08/29 10:21:06;;;;;;;3.95;2.70;;;;;;;18.23;66.75;100470.22;15612445;28;20493;-55
2023/08/29 10:28:41;;;;;;;5.85;3.00;;;;;;;18.48;66.70;100464.88;15595094;28;20049;-53
2023/08/29 10:36:17;;;;;;;4.25;2.63;;;;;;;17.99;67.09;100462.53;15611729;28;20056;-50
2023/08/29 10:43:53;;;;;;;5.65;3.10;;;;;;;18.10;66.45;100444.41;15611443;28;20041;-51
2023/08/29 10:51:27;;;;;;;6.35;2.92;;;;;;;18.66;65.23;100460.00;15611867;28;20060;-52
2023/08/29 10:59:00;;;;;;;6.07;3.47;;;;;;;18.25;65.38;100459.91;15593339;28;20057;-51
2023/08/29 11:06:55;;;;;;;6.70;3.50;;;;;;;18.46;65.41;100455.34;15591982;28;20565;-56
2023/08/29 11:14:49;;;;;;;5.88;3.42;;;;;;;18.46;65.87;100458.88;15608679;28;20089;-49
2023/08/29 11:22:28;;;;;;;4.63;3.72;;;;;;;18.67;64.60;100445.31;15592343;28;20068;-54
2023/08/29 11:30:02;;;;;;;3.83;3.45;;;;;;;18.69;65.36;100433.09;15591269;28;20061;-54
2023/08/29 11:37:39;;;;;;;6.57;3.47;;;;;;;19.08;63.52;100418.94;15608947;28;20454;-57
2023/08/29 11:45:16;;;;;;;7.28;3.78;;;;;;;18.55;62.83;100413.75;15609024;28;20302;-56
2023/08/29 11:52:50;;;;;;;3.92;3.15;;;;;;;19.03;63.12;100398.00;15609233;28;20477;-57
2023/08/29 12:00:25;;;;;;;4.43;2.70;;;;;;;18.95;63.32;100404.00;15609551;28;20080;-51
2023/08/29 12:07:59;;;;;;;7.95;2.97;;;;;;;19.41;62.51;100409.34;15609457;28;20144;-52
2023/08/29 12:15:35;;;;;;;6.18;3.13;;;;;;;18.83;63.65;100417.88;15608212;28;20137;-49
2023/08/29 12:23:11;;;;;;;5.22;3.45;;;;;;;19.02;63.59;100420.03;15607968;28;20065;-51
2023/08/29 12:30:47;;;;;;;5.95;3.58;;;;;;;18.75;62.43;100414.91;15601682;28;20080;-46
2023/08/29 12:38:22;;;;;;;5.05;3.70;;;;;;;18.94;62.64;100420.59;15603124;28;20143;-49
2023/08/29 12:45:56;;;;;;;5.85;4.10;;;;;;;19.10;61.25;100417.56;15618725;28;20520;-48
2023/08/29 12:53:30;;;;;;;;;;;;;;;19.41;60.89;100414.78;15601946;28;20104;-48
2023/08/29 13:01:06;;;;;;;10.57;7.30;;;;;;;19.18;61.38;100404.50;15618518;28;19967;-51
2023/08/29 13:08:40;;;;;;;7.32;5.55;;;;;;;19.28;63.09;100404.47;15584135;28;20060;-48
2023/08/29 13:16:15;;;;;;;8.80;4.85;;;;;;;19.18;63.31;100399.88;15574717;28;20046;-47
2023/08/29 13:23:50;;;;;;;7.65;3.80;;;;;;;19.08;62.36;100389.84;15602144;28;20113;-56
2023/08/29 13:31:24;;;;;;;7.22;4.13;;;;;;;18.35;65.33;100390.09;15617837;28;20163;-52
2023/08/29 13:38:58;;;;;;;6.05;3.92;;;;;;;18.18;66.92;100405.00;15599429;28;20128;-52
2023/08/29 13:46:32;;;;;;;5.55;3.38;;;;;;;18.01;69.60;100414.22;15598577;28;20065;-53
2023/08/29 13:54:07;;;;;;;5.97;3.78;;;;;;;18.02;70.28;100410.41;15615465;28;20084;-53
2023/08/29 14:01:41;;;;;;;3.95;3.58;;;;;;;17.80;71.43;100409.81;15590656;28;20121;-56
2023/08/29 14:09:15;;;;;;;7.70;4.38;;;;;;;18.18;70.13;100418.59;15595772;28;20073;-50
2023/08/29 14:16:49;;;;;;;4.90;4.05;;;;;;;17.53;73.49;100420.78;15614230;28;20450;-53
2023/08/29 14:24:23;;;;;;;6.97;4.13;;;;;;;18.10;71.85;100418.06;15614682;28;20128;-53
2023/08/29 14:31:57;;;;;;;7.80;4.60;;;;;;;18.40;70.69;100421.09;15595268;28;20068;-49
2023/08/29 14:39:33;;;;;;;4.95;3.90;;;;;;;17.88;72.28;100408.47;15595762;28;20037;-55
2023/08/29 14:47:07;;;;;;;4.78;4.10;;;;;;;17.98;71.55;100403.06;15594890;28;20096;-52
2023/08/29 14:54:41;;;;;;;7.63;4.00;;;;;;;18.19;72.36;100409.38;15611773;28;20128;-56
2023/08/29 15:02:16;;;;;;;3.90;2.95;;;;;;;17.15;75.42;100422.75;15611623;28;20049;-56
2023/08/29 15:09:51;;;;;;;2.85;2.15;;;;;;;16.58;76.24;100431.50;15612423;28;20131;-50
2023/08/29 15:17:29;;;;;;;6.65;2.20;;;;;;;16.71;75.40;100425.66;15611687;28;20426;-50
2023/08/29 15:33:12;;;;;;;4.60;2.63;;;;;;;17.11;73.92;100437.09;15881178;27;20389;-55
2023/08/29 15:40:49;;;;;;;4.70;3.15;;;;;;;17.07;74.35;100443.06;15858526;22;20063;-53
2023/08/29 15:48:24;;;;;;;4.07;2.92;;;;;;;17.43;73.09;100429.69;15593362;28;20494;-52
2023/08/29 15:56:00;;;;;;;4.22;3.00;;;;;;;16.90;75.93;100423.38;15592470;28;20041;-54
2023/08/29 16:03:35;;;;;;;8.30;3.80;;;;;;;16.75;76.68;100426.81;15604099;28;20112;-53
2023/08/29 16:11:08;;;;;;;4.68;3.20;;;;;;;16.59;77.37;100433.94;15582027;28;20096;-51
2023/08/29 16:18:43;;;;;;;4.70;2.67;;;;;;;16.70;75.88;100432.16;15588080;28;20125;-52
2023/08/29 16:26:17;;;;;;;3.85;1.80;;;;;;;16.73;74.31;100430.84;15584571;28;20450;-49
2023/08/29 16:33:53;;;;;;;3.55;1.90;;;;;;;16.76;73.65;100431.16;15605123;28;20461;-51
2023/08/29 16:41:26;;;;;;;2.88;2.30;;;;;;;16.98;73.40;100433.75;15572667;28;20045;-50
2023/08/29 16:49:00;;;;;;;5.07;3.50;;;;;;;17.17;73.37;100445.00;15554187;28;20133;-53
2023/08/29 16:56:34;;;;;;;7.32;5.78;;;;;;;17.23;73.50;100438.53;15536664;28;20485;-49
2023/08/29 17:04:10;;;;;;;4.95;4.03;;;;;;;17.19;73.90;100444.75;15551850;28;20050;-53
2023/08/29 17:11:45;;;;;;;4.68;3.60;;;;;;;16.87;74.38;100423.09;15552593;28;20490;-51
2023/08/29 17:19:20;;;;;;;3.47;3.00;;;;;;;16.28;76.51;100435.56;15552646;28;20104;-50
2023/08/29 17:26:54;;;;;;;6.13;3.25;;;;;;;16.75;74.42;100428.69;15558875;28;20034;-49
2023/08/29 17:34:28;;;;;;;4.93;3.40;;;;;;;16.95;74.23;100422.63;15559566;28;20100;-51
2023/08/29 17:42:02;;;;;;;4.90;3.70;;;;;;;16.58;76.10;100426.06;15545919;28;20042;-53
2023/08/29 17:49:37;;;;;;;5.60;4.20;;;;;;;16.70;76.25;100437.56;15557659;28;20045;-49
2023/08/29 17:57:10;;;;;;;5.15;3.70;;;;;;;16.57;75.83;100446.13;15558342;28;20050;-48
2023/08/29 18:04:45;;;;;;;6.05;4.18;;;;;;;15.97;76.43;100407.34;15550894;28;20454;-50
2023/08/29 18:12:20;;;;;;;4.53;3.50;;;;;;;16.59;75.76;100461.03;15553167;28;20407;-48
2023/08/29 18:19:56;;;;;;;;;;;;;;;16.33;74.61;100476.25;15558418;28;20042;-49
2023/08/29 18:27:29;;;;;;;5.75;2.40;;;;;;;16.21;75.31;100480.16;15557213;28;20008;-49
2023/08/29 18:35:05;;;;;;;8.88;3.08;;;;;;;16.13;75.50;100470.56;15549803;28;20104;-51
2023/08/29 18:42:38;;;;;;;3.83;2.80;;;;;;;16.21;75.39;100485.56;15545531;28;20080;-49
2023/08/29 18:50:15;;;;;;;3.92;3.45;;;;;;;16.62;74.20;100486.00;15556341;28;20045;-51
2023/08/29 18:57:48;;;;;;;5.75;3.03;;;;;;;16.43;75.44;100494.50;15548710;28;20498;-51
2023/08/29 19:05:23;;;;;;;3.60;3.30;;;;;;;16.65;74.35;100510.72;15554607;28;20503;-53
2023/08/29 19:12:55;;;;;;;4.07;3.38;;;;;;;16.46;75.79;100506.69;15553384;28;20049;-53
2023/08/29 19:20:31;;;;;;;5.30;4.10;;;;;;;16.67;74.26;100507.72;15554016;28;20056;-53
2023/08/29 19:28:04;;;;;;;4.25;3.80;;;;;;;16.40;75.98;100500.41;15554199;28;20111;-53
2023/08/29 19:35:39;;;;;;;4.15;2.90;;;;;;;16.40;75.12;100489.56;15547301;28;20101;-53
2023/08/29 19:43:12;;;;;;;3.63;3.03;;;;;;;15.96;77.16;100489.63;15530337;28;20447;-49
2023/08/29 19:50:47;;;;;;;3.50;2.47;;;;;;;15.76;77.56;100495.59;15553526;28;20376;-51
2023/08/29 19:58:23;;;;;;;4.10;2.30;;;;;;;15.52;78.29;100484.13;15546795;28;20034;-49
2023/08/29 20:05:59;;;;;;;4.93;2.70;;;;;;;15.95;77.48;100479.88;15520039;28;20068;-53
2023/08/29 20:13:33;;;;;;;3.80;2.72;;;;;;;15.96;77.04;100478.78;15510107;28;20076;-52
2023/08/29 20:21:07;;;;;;;;;;;;;;;15.59;78.48;100483.16;15534411;28;20503;-51
2023/08/29 20:28:40;;;;;;;3.08;2.78;;;;;;;15.99;76.82;100442.25;15538972;28;20394;-53
2023/08/29 20:36:14;;;;;;;;;;;;;;;15.76;78.07;100463.13;15531285;28;20141;-51
2023/08/29 20:43:48;;;;;;;4.22;3.00;;;;;;;15.59;78.23;100459.63;15545101;28;19968;-49
2023/08/29 20:51:22;;;;;;;;;;;;;;;15.83;77.93;100446.69;15540945;28;20495;-48
2023/08/29 20:58:55;;;;;;;3.72;2.63;;;;;;;15.97;77.16;100457.94;15550685;28;20390;-51
2023/08/29 21:06:30;;;;;;;4.72;3.03;;;;;;;15.86;77.68;100470.56;15541572;28;20054;-49
2023/08/29 21:14:06;;;;;;;3.70;2.40;;;;;;;15.63;77.89;100447.22;15542104;28;20161;-47
2023/08/29 21:21:43;;;;;;;6.13;1.85;;;;;;;15.64;77.89;100443.47;15561327;28;20116;-48
2023/08/29 21:29:19;;;;;;;2.42;2.22;;;;;;;15.76;77.71;100435.22;15560313;28;20064;-48
2023/08/29 21:36:55;;;;;;;3.20;2.17;;;;;;;15.62;78.11;100423.94;15559296;28;20096;-50
2023/08/29 21:44:28;;;;;;;6.97;3.03;;;;;;;15.84;77.61;100420.44;15569326;22;20049;-52
2023/08/29 21:52:09;;;;;;;6.50;3.00;;;;;;;15.99;76.81;100435.00;15603442;28;20050;-50
2023/08/29 21:59:42;;;;;;;4.95;3.22;;;;;;;15.99;76.58;100428.72;15599496;28;20057;-49
2023/08/29 22:07:18;;;;;;;4.50;2.95;;;;;;;16.10;76.44;100416.13;15582371;28;20041;-50
2023/08/29 22:15:04;;;;;;;3.55;3.17;;;;;;;16.16;76.00;100394.25;15592343;28;20128;-50
2023/08/29 22:22:38;;;;;;;4.70;3.22;;;;;;;16.11;76.03;100386.09;15611256;28;20045;-47
2023/08/29 22:30:12;;;;;;;5.93;2.90;;;;;;;15.97;76.27;100385.69;15611938;28;20044;-48
2023/08/29 22:37:47;;;;;;;3.78;2.80;;;;;;;16.11;75.93;100382.56;15609536;28;20045;-47
2023/08/29 22:45:20;;;;;;;5.22;3.25;;;;;;;16.09;75.87;100404.50;15603758;28;20057;-51
2023/08/29 22:52:56;;;;;;;4.32;3.10;;;;;;;15.69;76.94;100400.25;15596533;28;20042;-51
2023/08/29 23:00:31;;;;;;;9.80;4.75;;;;;;;15.31;78.83;100401.09;15596185;28;20216;-49
2023/08/29 23:08:06;;;;;;;5.57;4.15;;;;;;;15.27;78.58;100399.94;15584177;28;20049;-48
2023/08/29 23:15:39;;;;;;;4.38;3.20;;;;;;;14.98;79.06;100402.78;15582462;28;20128;-47
2023/08/29 23:23:13;;;;;;;10.15;4.25;;;;;;;15.60;77.47;100379.25;15592736;28;20080;-50
2023/08/29 23:30:49;;;;;;;4.85;3.60;;;;;;;15.63;76.71;100365.25;15609384;28;20132;-48
2023/08/29 23:38:24;;;;;;;5.13;3.45;;;;;;;15.47;77.47;100370.44;15604657;28;20064;-49
2023/08/29 23:45:57;;;;;;;3.63;3.15;;;;;;;15.54;76.45;100364.88;15604600;28;20068;-49
2023/08/29 23:53:31;;;;;;;5.78;3.65;;;;;;;15.73;75.77;100358.09;15597485;28;20066;-52
